sensor_id;sensor_type;location;lat;lon;timestamp;P1;durP1;ratioP1;P2;durP2;ratioP2
16516;SDS011;8371;52.272;9.746;2022-08-19T00:00:26;3.20;;;3.00;;
16516;SDS011;8371;52.272;9.746;2022-08-19T00:02:52;2.87;;;2.77;;
16516;SDS011;8371;52.272;9.746;2022-08-19T00:05:19;2.83;;;2.73;;
16516;SDS011;8371;52.272;9.746;2022-08-19T00:07:46;2.90;;;2.80;;
16516;SDS011;8371;52.272;9.746;2022-08-19T00:10:14;2.70;;;2.60;;
16516;SDS011;8371;52.272;9.746;2022-08-19T00:12:40;3.30;;;3.20;;
16516;SDS011;8371;52.272;9.746;2022-08-19T00:15:08;2.67;;;2.57;;
16516;SDS011;8371;52.272;9.746;2022-08-19T00:17:38;3.13;;;3.03;;
16516;SDS011;8371;52.272;9.746;2022-08-19T00:20:05;2.77;;;2.67;;
16516;SDS011;8371;52.272;9.746;2022-08-19T00:22:32;3.50;;;3.30;;
16516;SDS011;8371;52.272;9.746;2022-08-19T00:24:58;3.67;;;3.47;;
16516;SDS011;8371;52.272;9.746;2022-08-19T00:27:24;3.10;;;3.00;;
16516;SDS011;8371;52.272;9.746;2022-08-19T00:29:50;3.20;;;3.10;;
16516;SDS011;8371;52.272;9.746;2022-08-19T00:32:16;3.10;;;3.00;;
16516;SDS011;8371;52.272;9.746;2022-08-19T00:34:41;3.27;;;3.07;;
16516;SDS011;8371;52.272;9.746;2022-08-19T00:37:07;2.90;;;2.73;;
16516;SDS011;8371;52.272;9.746;2022-08-19T00:39:33;3.33;;;3.13;;
16516;SDS011;8371;52.272;9.746;2022-08-19T00:41:59;3.33;;;3.10;;
16516;SDS011;8371;52.272;9.746;2022-08-19T00:44:26;3.10;;;3.00;;
16516;SDS011;8371;52.272;9.746;2022-08-19T00:46:55;4.00;;;3.80;;
16516;SDS011;8371;52.272;9.746;2022-08-19T00:49:24;3.17;;;3.07;;
16516;SDS011;8371;52.272;9.746;2022-08-19T00:51:53;3.17;;;3.07;;
16516;SDS011;8371;52.272;9.746;2022-08-19T00:54:21;2.87;;;2.77;;
16516;SDS011;8371;52.272;9.746;2022-08-19T00:56:48;3.37;;;3.27;;
16516;SDS011;8371;52.272;9.746;2022-08-19T00:59:16;3.43;;;3.30;;
16516;SDS011;8371;52.272;9.746;2022-08-19T01:01:43;3.57;;;3.47;;
16516;SDS011;8371;52.272;9.746;2022-08-19T01:04:11;3.83;;;3.73;;
16516;SDS011;8371;52.272;9.746;2022-08-19T01:06:37;4.10;;;3.67;;
16516;SDS011;8371;52.272;9.746;2022-08-19T01:09:06;2.97;;;2.87;;
16516;SDS011;8371;52.272;9.746;2022-08-19T01:11:35;3.57;;;3.47;;
16516;SDS011;8371;52.272;9.746;2022-08-19T01:14:03;3.40;;;3.30;;
16516;SDS011;8371;52.272;9.746;2022-08-19T01:16:29;3.67;;;3.47;;
16516;SDS011;8371;52.272;9.746;2022-08-19T01:18:55;4.17;;;3.97;;
16516;SDS011;8371;52.272;9.746;2022-08-19T01:21:32;3.97;;;3.87;;
16516;SDS011;8371;52.272;9.746;2022-08-19T01:24:09;3.77;;;3.57;;
16516;SDS011;8371;52.272;9.746;2022-08-19T01:26:39;4.10;;;3.80;;
16516;SDS011;8371;52.272;9.746;2022-08-19T01:29:08;4.00;;;3.80;;
16516;SDS011;8371;52.272;9.746;2022-08-19T01:31:34;3.97;;;3.70;;
16516;SDS011;8371;52.272;9.746;2022-08-19T01:34:01;4.20;;;4.10;;
16516;SDS011;8371;52.272;9.746;2022-08-19T01:36:30;3.53;;;3.33;;
16516;SDS011;8371;52.272;9.746;2022-08-19T01:38:58;3.30;;;3.20;;
16516;SDS011;8371;52.272;9.746;2022-08-19T01:41:25;3.43;;;3.30;;
16516;SDS011;8371;52.272;9.746;2022-08-19T01:43:51;4.13;;;3.93;;
16516;SDS011;8371;52.272;9.746;2022-08-19T01:46:18;3.50;;;3.40;;
16516;SDS011;8371;52.272;9.746;2022-08-19T01:48:44;3.50;;;3.40;;
16516;SDS011;8371;52.272;9.746;2022-08-19T01:51:11;3.77;;;3.67;;
16516;SDS011;8371;52.272;9.746;2022-08-19T01:53:38;3.27;;;3.17;;
16516;SDS011;8371;52.272;9.746;2022-08-19T01:56:05;4.10;;;3.90;;
16516;SDS011;8371;52.272;9.746;2022-08-19T01:58:33;3.37;;;3.27;;
16516;SDS011;8371;52.272;9.746;2022-08-19T02:01:02;3.40;;;3.30;;
16516;SDS011;8371;52.272;9.746;2022-08-19T02:03:29;4.20;;;4.00;;
16516;SDS011;8371;52.272;9.746;2022-08-19T02:05:56;3.77;;;3.67;;
16516;SDS011;8371;52.272;9.746;2022-08-19T02:08:29;3.63;;;3.43;;
16516;SDS011;8371;52.272;9.746;2022-08-19T02:10:52;3.70;;;3.60;;
16516;SDS011;8371;52.272;9.746;2022-08-19T02:13:18;3.63;;;3.53;;
16516;SDS011;8371;52.272;9.746;2022-08-19T02:15:44;3.90;;;3.80;;
16516;SDS011;8371;52.272;9.746;2022-08-19T02:18:10;3.63;;;3.53;;
16516;SDS011;8371;52.272;9.746;2022-08-19T02:20:36;3.73;;;3.53;;
16516;SDS011;8371;52.272;9.746;2022-08-19T02:23:04;3.40;;;3.20;;
16516;SDS011;8371;52.272;9.746;2022-08-19T02:25:30;3.67;;;3.57;;
16516;SDS011;8371;52.272;9.746;2022-08-19T02:27:55;3.37;;;3.27;;
16516;SDS011;8371;52.272;9.746;2022-08-19T02:30:21;4.20;;;3.97;;
16516;SDS011;8371;52.272;9.746;2022-08-19T02:32:47;3.20;;;3.10;;
16516;SDS011;8371;52.272;9.746;2022-08-19T02:35:13;3.93;;;3.83;;
16516;SDS011;8371;52.272;9.746;2022-08-19T02:37:40;3.60;;;3.43;;
16516;SDS011;8371;52.272;9.746;2022-08-19T02:40:26;3.33;;;3.23;;
16516;SDS011;8371;52.272;9.746;2022-08-19T02:42:52;4.20;;;3.87;;
16516;SDS011;8371;52.272;9.746;2022-08-19T02:45:18;3.93;;;3.83;;
16516;SDS011;8371;52.272;9.746;2022-08-19T02:47:44;4.07;;;3.97;;
16516;SDS011;8371;52.272;9.746;2022-08-19T02:50:10;4.43;;;4.23;;
16516;SDS011;8371;52.272;9.746;2022-08-19T02:52:35;3.83;;;3.73;;
16516;SDS011;8371;52.272;9.746;2022-08-19T02:55:01;4.03;;;3.83;;
16516;SDS011;8371;52.272;9.746;2022-08-19T02:57:29;3.70;;;3.53;;
16516;SDS011;8371;52.272;9.746;2022-08-19T02:59:57;3.93;;;3.40;;
16516;SDS011;8371;52.272;9.746;2022-08-19T03:02:22;3.43;;;3.30;;
16516;SDS011;8371;52.272;9.746;2022-08-19T03:04:48;3.83;;;3.63;;
16516;SDS011;8371;52.272;9.746;2022-08-19T03:07:15;3.23;;;3.13;;
16516;SDS011;8371;52.272;9.746;2022-08-19T03:09:41;3.30;;;3.20;;
16516;SDS011;8371;52.272;9.746;2022-08-19T03:12:08;3.70;;;3.60;;
16516;SDS011;8371;52.272;9.746;2022-08-19T03:14:34;3.83;;;3.60;;
16516;SDS011;8371;52.272;9.746;2022-08-19T03:17:00;3.80;;;3.63;;
16516;SDS011;8371;52.272;9.746;2022-08-19T03:19:28;3.53;;;3.33;;
16516;SDS011;8371;52.272;9.746;2022-08-19T03:21:54;3.73;;;3.63;;
16516;SDS011;8371;52.272;9.746;2022-08-19T03:24:20;3.63;;;3.53;;
16516;SDS011;8371;52.272;9.746;2022-08-19T03:26:48;3.53;;;3.33;;
16516;SDS011;8371;52.272;9.746;2022-08-19T03:29:17;3.60;;;3.30;;
16516;SDS011;8371;52.272;9.746;2022-08-19T03:31:44;3.33;;;3.10;;
16516;SDS011;8371;52.272;9.746;2022-08-19T03:34:11;3.67;;;3.57;;
16516;SDS011;8371;52.272;9.746;2022-08-19T03:36:38;3.97;;;3.77;;
16516;SDS011;8371;52.272;9.746;2022-08-19T03:39:04;4.20;;;3.90;;
16516;SDS011;8371;52.272;9.746;2022-08-19T03:41:31;3.67;;;3.57;;
16516;SDS011;8371;52.272;9.746;2022-08-19T03:43:59;3.30;;;3.20;;
16516;SDS011;8371;52.272;9.746;2022-08-19T03:46:26;3.60;;;3.40;;
16516;SDS011;8371;52.272;9.746;2022-08-19T03:48:54;3.30;;;3.20;;
16516;SDS011;8371;52.272;9.746;2022-08-19T03:51:22;3.70;;;3.40;;
16516;SDS011;8371;52.272;9.746;2022-08-19T03:53:54;3.43;;;3.33;;
16516;SDS011;8371;52.272;9.746;2022-08-19T03:56:20;3.50;;;3.40;;
16516;SDS011;8371;52.272;9.746;2022-08-19T03:58:47;3.47;;;3.37;;
16516;SDS011;8371;52.272;9.746;2022-08-19T04:01:15;4.03;;;3.83;;
16516;SDS011;8371;52.272;9.746;2022-08-19T04:03:43;3.73;;;3.63;;
16516;SDS011;8371;52.272;9.746;2022-08-19T04:06:16;3.70;;;3.50;;
16516;SDS011;8371;52.272;9.746;2022-08-19T04:08:46;5.93;;;3.47;;
16516;SDS011;8371;52.272;9.746;2022-08-19T04:11:13;3.90;;;3.80;;
16516;SDS011;8371;52.272;9.746;2022-08-19T04:13:41;4.10;;;3.90;;
16516;SDS011;8371;52.272;9.746;2022-08-19T04:16:08;3.93;;;3.73;;
16516;SDS011;8371;52.272;9.746;2022-08-19T04:18:35;4.07;;;3.77;;
16516;SDS011;8371;52.272;9.746;2022-08-19T04:21:02;4.23;;;4.10;;
16516;SDS011;8371;52.272;9.746;2022-08-19T04:23:28;4.20;;;2.77;;
16516;SDS011;8371;52.272;9.746;2022-08-19T04:25:55;4.37;;;4.10;;
16516;SDS011;8371;52.272;9.746;2022-08-19T04:28:21;3.53;;;3.43;;
16516;SDS011;8371;52.272;9.746;2022-08-19T04:30:49;4.03;;;3.83;;
16516;SDS011;8371;52.272;9.746;2022-08-19T04:33:17;4.20;;;3.93;;
16516;SDS011;8371;52.272;9.746;2022-08-19T04:35:45;3.90;;;3.73;;
16516;SDS011;8371;52.272;9.746;2022-08-19T04:38:14;4.00;;;3.87;;
16516;SDS011;8371;52.272;9.746;2022-08-19T04:40:41;4.17;;;3.97;;
16516;SDS011;8371;52.272;9.746;2022-08-19T04:43:27;3.30;;;3.20;;
16516;SDS011;8371;52.272;9.746;2022-08-19T04:45:53;3.97;;;3.67;;
16516;SDS011;8371;52.272;9.746;2022-08-19T04:48:19;3.57;;;3.47;;
16516;SDS011;8371;52.272;9.746;2022-08-19T04:50:46;3.80;;;3.53;;
16516;SDS011;8371;52.272;9.746;2022-08-19T04:53:13;3.57;;;3.47;;
16516;SDS011;8371;52.272;9.746;2022-08-19T04:55:40;4.03;;;3.83;;
16516;SDS011;8371;52.272;9.746;2022-08-19T04:58:06;3.70;;;3.60;;
16516;SDS011;8371;52.272;9.746;2022-08-19T05:00:32;3.70;;;3.50;;
16516;SDS011;8371;52.272;9.746;2022-08-19T05:02:58;3.60;;;3.50;;
16516;SDS011;8371;52.272;9.746;2022-08-19T05:05:24;3.13;;;3.03;;
16516;SDS011;8371;52.272;9.746;2022-08-19T05:07:49;3.40;;;3.20;;
16516;SDS011;8371;52.272;9.746;2022-08-19T05:10:15;3.13;;;3.03;;
16516;SDS011;8371;52.272;9.746;2022-08-19T05:12:41;3.27;;;3.17;;
16516;SDS011;8371;52.272;9.746;2022-08-19T05:15:06;3.53;;;3.33;;
16516;SDS011;8371;52.272;9.746;2022-08-19T05:17:33;3.20;;;3.10;;
16516;SDS011;8371;52.272;9.746;2022-08-19T05:19:59;4.27;;;3.90;;
16516;SDS011;8371;52.272;9.746;2022-08-19T05:22:44;5.50;;;4.23;;
16516;SDS011;8371;52.272;9.746;2022-08-19T05:25:13;3.97;;;3.77;;
16516;SDS011;8371;52.272;9.746;2022-08-19T05:27:43;3.77;;;3.57;;
16516;SDS011;8371;52.272;9.746;2022-08-19T05:30:09;4.23;;;4.13;;
16516;SDS011;8371;52.272;9.746;2022-08-19T05:32:35;3.87;;;3.70;;
16516;SDS011;8371;52.272;9.746;2022-08-19T05:35:02;4.60;;;4.23;;
16516;SDS011;8371;52.272;9.746;2022-08-19T05:37:28;3.60;;;3.50;;
16516;SDS011;8371;52.272;9.746;2022-08-19T05:39:54;4.70;;;4.50;;
16516;SDS011;8371;52.272;9.746;2022-08-19T05:42:20;3.87;;;3.67;;
16516;SDS011;8371;52.272;9.746;2022-08-19T05:44:48;4.50;;;4.40;;
16516;SDS011;8371;52.272;9.746;2022-08-19T05:47:15;4.87;;;4.67;;
16516;SDS011;8371;52.272;9.746;2022-08-19T05:49:41;4.80;;;4.40;;
16516;SDS011;8371;52.272;9.746;2022-08-19T05:52:09;4.27;;;4.10;;
16516;SDS011;8371;52.272;9.746;2022-08-19T05:54:39;4.80;;;4.60;;
16516;SDS011;8371;52.272;9.746;2022-08-19T05:57:06;4.77;;;4.57;;
16516;SDS011;8371;52.272;9.746;2022-08-19T05:59:32;4.10;;;3.97;;
16516;SDS011;8371;52.272;9.746;2022-08-19T06:02:00;4.60;;;4.30;;
16516;SDS011;8371;52.272;9.746;2022-08-19T06:04:27;4.80;;;4.60;;
16516;SDS011;8371;52.272;9.746;2022-08-19T06:06:53;4.03;;;3.83;;
16516;SDS011;8371;52.272;9.746;2022-08-19T06:09:19;4.60;;;4.40;;
16516;SDS011;8371;52.272;9.746;2022-08-19T06:14:18;4.87;;;4.67;;
16516;SDS011;8371;52.272;9.746;2022-08-19T06:16:46;4.97;;;4.77;;
16516;SDS011;8371;52.272;9.746;2022-08-19T06:19:13;5.37;;;4.97;;
16516;SDS011;8371;52.272;9.746;2022-08-19T06:21:41;5.43;;;5.03;;
16516;SDS011;8371;52.272;9.746;2022-08-19T06:24:09;5.57;;;5.17;;
16516;SDS011;8371;52.272;9.746;2022-08-19T06:26:38;5.20;;;4.87;;
16516;SDS011;8371;52.272;9.746;2022-08-19T06:29:07;5.10;;;4.90;;
16516;SDS011;8371;52.272;9.746;2022-08-19T06:31:34;5.23;;;4.93;;
16516;SDS011;8371;52.272;9.746;2022-08-19T06:34:02;5.20;;;4.90;;
16516;SDS011;8371;52.272;9.746;2022-08-19T06:36:31;6.10;;;5.80;;
16516;SDS011;8371;52.272;9.746;2022-08-19T06:39:00;5.63;;;5.23;;
16516;SDS011;8371;52.272;9.746;2022-08-19T06:41:28;5.50;;;5.20;;
16516;SDS011;8371;52.272;9.746;2022-08-19T06:43:54;5.87;;;5.57;;
16516;SDS011;8371;52.272;9.746;2022-08-19T06:46:21;5.53;;;5.33;;
16516;SDS011;8371;52.272;9.746;2022-08-19T06:48:47;6.93;;;6.63;;
16516;SDS011;8371;52.272;9.746;2022-08-19T06:51:14;6.10;;;5.80;;
16516;SDS011;8371;52.272;9.746;2022-08-19T06:53:44;5.77;;;5.47;;
16516;SDS011;8371;52.272;9.746;2022-08-19T06:56:15;7.10;;;6.53;;
16516;SDS011;8371;52.272;9.746;2022-08-19T06:58:42;5.67;;;5.47;;
16516;SDS011;8371;52.272;9.746;2022-08-19T07:01:17;5.80;;;5.50;;
16516;SDS011;8371;52.272;9.746;2022-08-19T07:03:43;5.73;;;5.53;;
16516;SDS011;8371;52.272;9.746;2022-08-19T07:06:10;6.00;;;5.57;;
16516;SDS011;8371;52.272;9.746;2022-08-19T07:08:38;6.03;;;5.83;;
16516;SDS011;8371;52.272;9.746;2022-08-19T07:11:06;6.53;;;6.23;;
16516;SDS011;8371;52.272;9.746;2022-08-19T07:13:33;5.60;;;5.30;;
16516;SDS011;8371;52.272;9.746;2022-08-19T07:16:09;6.33;;;6.03;;
16516;SDS011;8371;52.272;9.746;2022-08-19T07:18:37;5.27;;;5.07;;
16516;SDS011;8371;52.272;9.746;2022-08-19T07:21:04;6.40;;;6.00;;
16516;SDS011;8371;52.272;9.746;2022-08-19T07:23:32;5.50;;;5.20;;
16516;SDS011;8371;52.272;9.746;2022-08-19T07:25:58;5.80;;;5.50;;
16516;SDS011;8371;52.272;9.746;2022-08-19T07:28:25;5.13;;;4.83;;
16516;SDS011;8371;52.272;9.746;2022-08-19T07:30:51;5.27;;;4.97;;
16516;SDS011;8371;52.272;9.746;2022-08-19T07:33:17;5.10;;;4.83;;
16516;SDS011;8371;52.272;9.746;2022-08-19T07:35:43;4.87;;;4.67;;
16516;SDS011;8371;52.272;9.746;2022-08-19T07:38:09;5.57;;;5.17;;
16516;SDS011;8371;52.272;9.746;2022-08-19T07:40:35;5.13;;;4.70;;
16516;SDS011;8371;52.272;9.746;2022-08-19T07:43:01;5.30;;;5.10;;
16516;SDS011;8371;52.272;9.746;2022-08-19T07:45:27;4.73;;;4.53;;
16516;SDS011;8371;52.272;9.746;2022-08-19T07:47:54;5.20;;;5.00;;
16516;SDS011;8371;52.272;9.746;2022-08-19T07:50:20;6.13;;;5.70;;
16516;SDS011;8371;52.272;9.746;2022-08-19T07:52:46;5.47;;;5.27;;
16516;SDS011;8371;52.272;9.746;2022-08-19T07:55:15;5.40;;;5.00;;
16516;SDS011;8371;52.272;9.746;2022-08-19T07:57:43;4.80;;;4.53;;
16516;SDS011;8371;52.272;9.746;2022-08-19T08:00:09;4.53;;;4.33;;
16516;SDS011;8371;52.272;9.746;2022-08-19T08:02:35;4.77;;;4.57;;
16516;SDS011;8371;52.272;9.746;2022-08-19T08:05:00;4.53;;;4.27;;
16516;SDS011;8371;52.272;9.746;2022-08-19T08:07:45;3.73;;;3.63;;
16516;SDS011;8371;52.272;9.746;2022-08-19T08:10:29;3.80;;;3.70;;
16516;SDS011;8371;52.272;9.746;2022-08-19T08:12:54;4.03;;;3.83;;
16516;SDS011;8371;52.272;9.746;2022-08-19T08:15:20;4.07;;;3.87;;
16516;SDS011;8371;52.272;9.746;2022-08-19T08:17:46;4.87;;;4.60;;
16516;SDS011;8371;52.272;9.746;2022-08-19T08:20:12;5.17;;;4.93;;
16516;SDS011;8371;52.272;9.746;2022-08-19T08:22:42;3.90;;;3.80;;
16516;SDS011;8371;52.272;9.746;2022-08-19T08:25:28;4.27;;;4.17;;
16516;SDS011;8371;52.272;9.746;2022-08-19T08:27:54;5.13;;;4.80;;
16516;SDS011;8371;52.272;9.746;2022-08-19T08:30:23;4.50;;;4.40;;
16516;SDS011;8371;52.272;9.746;2022-08-19T08:32:51;3.57;;;3.47;;
16516;SDS011;8371;52.272;9.746;2022-08-19T08:35:18;4.30;;;4.20;;
16516;SDS011;8371;52.272;9.746;2022-08-19T08:37:46;3.70;;;3.60;;
16516;SDS011;8371;52.272;9.746;2022-08-19T08:40:28;4.17;;;4.07;;
16516;SDS011;8371;52.272;9.746;2022-08-19T08:46:00;3.60;;;3.40;;
16516;SDS011;8371;52.272;9.746;2022-08-19T08:49:01;3.90;;;3.70;;
16516;SDS011;8371;52.272;9.746;2022-08-19T08:51:41;4.00;;;3.80;;
16516;SDS011;8371;52.272;9.746;2022-08-19T08:54:07;3.87;;;3.77;;
16516;SDS011;8371;52.272;9.746;2022-08-19T08:56:37;4.00;;;3.77;;
16516;SDS011;8371;52.272;9.746;2022-08-19T08:59:21;3.23;;;3.13;;
16516;SDS011;8371;52.272;9.746;2022-08-19T09:01:49;3.30;;;3.20;;
16516;SDS011;8371;52.272;9.746;2022-08-19T09:04:14;3.73;;;3.53;;
16516;SDS011;8371;52.272;9.746;2022-08-19T09:06:47;4.53;;;4.33;;
16516;SDS011;8371;52.272;9.746;2022-08-19T09:09:14;4.13;;;3.93;;
16516;SDS011;8371;52.272;9.746;2022-08-19T09:14:57;3.67;;;3.47;;
16516;SDS011;8371;52.272;9.746;2022-08-19T09:17:27;3.43;;;3.27;;
16516;SDS011;8371;52.272;9.746;2022-08-19T09:22:42;3.90;;;3.70;;
16516;SDS011;8371;52.272;9.746;2022-08-19T09:25:12;3.27;;;3.17;;
16516;SDS011;8371;52.272;9.746;2022-08-19T09:27:40;3.20;;;3.10;;
16516;SDS011;8371;52.272;9.746;2022-08-19T09:30:08;2.93;;;2.80;;
16516;SDS011;8371;52.272;9.746;2022-08-19T09:32:36;2.90;;;2.80;;
16516;SDS011;8371;52.272;9.746;2022-08-19T09:35:04;2.87;;;2.77;;
16516;SDS011;8371;52.272;9.746;2022-08-19T09:37:31;3.00;;;2.90;;
16516;SDS011;8371;52.272;9.746;2022-08-19T09:39:57;2.63;;;2.53;;
16516;SDS011;8371;52.272;9.746;2022-08-19T09:42:23;2.30;;;2.10;;
16516;SDS011;8371;52.272;9.746;2022-08-19T09:44:48;1.90;;;1.90;;
16516;SDS011;8371;52.272;9.746;2022-08-19T09:47:14;2.40;;;2.30;;
16516;SDS011;8371;52.272;9.746;2022-08-19T09:49:41;2.17;;;2.07;;
16516;SDS011;8371;52.272;9.746;2022-08-19T09:52:10;2.23;;;2.17;;
16516;SDS011;8371;52.272;9.746;2022-08-19T09:54:37;1.83;;;1.83;;
16516;SDS011;8371;52.272;9.746;2022-08-19T09:57:03;2.57;;;2.33;;
16516;SDS011;8371;52.272;9.746;2022-08-19T09:59:29;3.47;;;2.00;;
16516;SDS011;8371;52.272;9.746;2022-08-19T10:01:55;1.77;;;1.77;;
16516;SDS011;8371;52.272;9.746;2022-08-19T10:04:21;1.53;;;1.53;;
16516;SDS011;8371;52.272;9.746;2022-08-19T10:06:47;1.97;;;1.87;;
16516;SDS011;8371;52.272;9.746;2022-08-19T10:09:15;1.67;;;1.63;;
16516;SDS011;8371;52.272;9.746;2022-08-19T10:11:43;1.60;;;1.60;;
16516;SDS011;8371;52.272;9.746;2022-08-19T10:14:12;1.70;;;1.60;;
16516;SDS011;8371;52.272;9.746;2022-08-19T10:16:37;1.13;;;1.13;;
16516;SDS011;8371;52.272;9.746;2022-08-19T10:19:04;1.10;;;1.10;;
16516;SDS011;8371;52.272;9.746;2022-08-19T10:21:30;1.50;;;1.40;;
16516;SDS011;8371;52.272;9.746;2022-08-19T10:23:59;1.03;;;1.03;;
16516;SDS011;8371;52.272;9.746;2022-08-19T10:29:01;1.23;;;1.23;;
16516;SDS011;8371;52.272;9.746;2022-08-19T10:31:28;0.97;;;0.97;;
16516;SDS011;8371;52.272;9.746;2022-08-19T10:33:55;1.00;;;1.00;;
16516;SDS011;8371;52.272;9.746;2022-08-19T10:36:25;0.80;;;0.80;;
16516;SDS011;8371;52.272;9.746;2022-08-19T10:38:57;0.93;;;0.93;;
16516;SDS011;8371;52.272;9.746;2022-08-19T10:41:31;1.07;;;1.03;;
16516;SDS011;8371;52.272;9.746;2022-08-19T10:43:59;0.93;;;0.93;;
16516;SDS011;8371;52.272;9.746;2022-08-19T10:46:27;1.57;;;1.47;;
16516;SDS011;8371;52.272;9.746;2022-08-19T10:48:56;1.27;;;1.23;;
16516;SDS011;8371;52.272;9.746;2022-08-19T10:51:21;1.20;;;1.20;;
16516;SDS011;8371;52.272;9.746;2022-08-19T10:54:06;1.23;;;1.23;;
16516;SDS011;8371;52.272;9.746;2022-08-19T10:56:32;1.00;;;1.00;;
16516;SDS011;8371;52.272;9.746;2022-08-19T11:02:01;1.10;;;1.10;;
16516;SDS011;8371;52.272;9.746;2022-08-19T11:04:30;1.00;;;1.00;;
16516;SDS011;8371;52.272;9.746;2022-08-19T11:06:57;0.77;;;0.77;;
16516;SDS011;8371;52.272;9.746;2022-08-19T11:09:23;0.97;;;0.97;;
16516;SDS011;8371;52.272;9.746;2022-08-19T11:11:50;1.10;;;1.10;;
16516;SDS011;8371;52.272;9.746;2022-08-19T11:14:19;1.00;;;1.00;;
16516;SDS011;8371;52.272;9.746;2022-08-19T11:16:49;1.00;;;1.00;;
16516;SDS011;8371;52.272;9.746;2022-08-19T11:19:16;1.10;;;1.10;;
16516;SDS011;8371;52.272;9.746;2022-08-19T11:21:44;1.67;;;0.90;;
16516;SDS011;8371;52.272;9.746;2022-08-19T11:24:14;1.17;;;1.17;;
16516;SDS011;8371;52.272;9.746;2022-08-19T11:26:42;1.20;;;1.20;;
16516;SDS011;8371;52.272;9.746;2022-08-19T11:29:10;1.10;;;1.10;;
16516;SDS011;8371;52.272;9.746;2022-08-19T11:31:43;1.10;;;1.10;;
16516;SDS011;8371;52.272;9.746;2022-08-19T11:34:09;1.20;;;1.20;;
16516;SDS011;8371;52.272;9.746;2022-08-19T11:36:38;1.10;;;1.10;;
16516;SDS011;8371;52.272;9.746;2022-08-19T11:39:06;1.20;;;1.20;;
16516;SDS011;8371;52.272;9.746;2022-08-19T11:41:33;1.03;;;1.03;;
16516;SDS011;8371;52.272;9.746;2022-08-19T11:43:59;1.20;;;1.20;;
16516;SDS011;8371;52.272;9.746;2022-08-19T11:46:25;0.90;;;0.90;;
16516;SDS011;8371;52.272;9.746;2022-08-19T11:48:54;0.93;;;0.93;;
16516;SDS011;8371;52.272;9.746;2022-08-19T11:51:20;1.07;;;1.07;;
16516;SDS011;8371;52.272;9.746;2022-08-19T11:53:50;0.80;;;0.80;;
16516;SDS011;8371;52.272;9.746;2022-08-19T11:56:16;0.70;;;0.70;;
16516;SDS011;8371;52.272;9.746;2022-08-19T11:58:43;0.73;;;0.73;;
16516;SDS011;8371;52.272;9.746;2022-08-19T12:01:14;0.90;;;0.90;;
16516;SDS011;8371;52.272;9.746;2022-08-19T12:03:42;1.80;;;1.07;;
16516;SDS011;8371;52.272;9.746;2022-08-19T12:06:10;0.80;;;0.80;;
16516;SDS011;8371;52.272;9.746;2022-08-19T12:08:41;1.03;;;1.03;;
16516;SDS011;8371;52.272;9.746;2022-08-19T12:11:08;0.77;;;0.77;;
16516;SDS011;8371;52.272;9.746;2022-08-19T12:13:35;0.90;;;0.90;;
16516;SDS011;8371;52.272;9.746;2022-08-19T12:16:10;1.00;;;1.00;;
16516;SDS011;8371;52.272;9.746;2022-08-19T12:18:38;1.17;;;0.80;;
16516;SDS011;8371;52.272;9.746;2022-08-19T12:21:06;0.80;;;0.80;;
16516;SDS011;8371;52.272;9.746;2022-08-19T12:23:33;0.90;;;0.90;;
16516;SDS011;8371;52.272;9.746;2022-08-19T12:25:59;0.77;;;0.77;;
16516;SDS011;8371;52.272;9.746;2022-08-19T12:28:24;1.00;;;1.00;;
16516;SDS011;8371;52.272;9.746;2022-08-19T12:30:50;1.00;;;1.00;;
16516;SDS011;8371;52.272;9.746;2022-08-19T12:33:17;0.80;;;0.80;;
16516;SDS011;8371;52.272;9.746;2022-08-19T12:35:45;0.80;;;0.80;;
16516;SDS011;8371;52.272;9.746;2022-08-19T12:38:12;1.07;;;1.07;;
16516;SDS011;8371;52.272;9.746;2022-08-19T12:40:38;0.90;;;0.90;;
16516;SDS011;8371;52.272;9.746;2022-08-19T12:43:07;0.90;;;0.90;;
16516;SDS011;8371;52.272;9.746;2022-08-19T12:45:34;0.80;;;0.80;;
16516;SDS011;8371;52.272;9.746;2022-08-19T12:48:00;0.87;;;0.87;;
16516;SDS011;8371;52.272;9.746;2022-08-19T12:50:26;0.80;;;0.80;;
16516;SDS011;8371;52.272;9.746;2022-08-19T12:52:51;0.90;;;0.90;;
16516;SDS011;8371;52.272;9.746;2022-08-19T12:55:17;0.97;;;0.97;;
16516;SDS011;8371;52.272;9.746;2022-08-19T12:57:44;1.07;;;1.07;;
16516;SDS011;8371;52.272;9.746;2022-08-19T13:00:12;0.70;;;0.70;;
16516;SDS011;8371;52.272;9.746;2022-08-19T13:02:40;0.77;;;0.77;;
16516;SDS011;8371;52.272;9.746;2022-08-19T13:05:10;0.90;;;0.90;;
16516;SDS011;8371;52.272;9.746;2022-08-19T13:07:38;0.80;;;0.80;;
16516;SDS011;8371;52.272;9.746;2022-08-19T13:10:05;0.90;;;0.90;;
16516;SDS011;8371;52.272;9.746;2022-08-19T13:12:33;0.60;;;0.60;;
16516;SDS011;8371;52.272;9.746;2022-08-19T13:14:58;0.63;;;0.63;;
16516;SDS011;8371;52.272;9.746;2022-08-19T13:17:24;2.67;;;0.70;;
16516;SDS011;8371;52.272;9.746;2022-08-19T13:19:50;0.67;;;0.67;;
16516;SDS011;8371;52.272;9.746;2022-08-19T13:22:16;0.90;;;0.90;;
16516;SDS011;8371;52.272;9.746;2022-08-19T13:24:42;0.80;;;0.80;;
16516;SDS011;8371;52.272;9.746;2022-08-19T13:27:08;0.73;;;0.73;;
16516;SDS011;8371;52.272;9.746;2022-08-19T13:29:34;0.87;;;0.87;;
16516;SDS011;8371;52.272;9.746;2022-08-19T13:32:18;0.80;;;0.80;;
16516;SDS011;8371;52.272;9.746;2022-08-19T13:35:03;0.77;;;0.77;;
16516;SDS011;8371;52.272;9.746;2022-08-19T13:37:29;0.90;;;0.90;;
16516;SDS011;8371;52.272;9.746;2022-08-19T13:40:12;0.90;;;0.90;;
16516;SDS011;8371;52.272;9.746;2022-08-19T13:42:46;2.07;;;0.80;;
16516;SDS011;8371;52.272;9.746;2022-08-19T13:45:14;0.90;;;0.90;;
16516;SDS011;8371;52.272;9.746;2022-08-19T13:47:45;0.67;;;0.67;;
16516;SDS011;8371;52.272;9.746;2022-08-19T13:50:15;0.70;;;0.70;;
16516;SDS011;8371;52.272;9.746;2022-08-19T13:52:43;0.80;;;0.80;;
16516;SDS011;8371;52.272;9.746;2022-08-19T13:55:10;0.80;;;0.80;;
16516;SDS011;8371;52.272;9.746;2022-08-19T13:57:37;0.60;;;0.60;;
16516;SDS011;8371;52.272;9.746;2022-08-19T14:00:08;0.77;;;0.77;;
16516;SDS011;8371;52.272;9.746;2022-08-19T14:02:36;0.70;;;0.70;;
16516;SDS011;8371;52.272;9.746;2022-08-19T14:05:04;0.50;;;0.50;;
16516;SDS011;8371;52.272;9.746;2022-08-19T14:07:31;0.57;;;0.57;;
16516;SDS011;8371;52.272;9.746;2022-08-19T14:09:57;0.70;;;0.70;;
16516;SDS011;8371;52.272;9.746;2022-08-19T14:12:23;0.50;;;0.50;;
16516;SDS011;8371;52.272;9.746;2022-08-19T14:14:49;0.77;;;0.70;;
16516;SDS011;8371;52.272;9.746;2022-08-19T14:17:15;0.70;;;0.70;;
16516;SDS011;8371;52.272;9.746;2022-08-19T14:19:41;1.83;;;0.80;;
16516;SDS011;8371;52.272;9.746;2022-08-19T14:22:07;0.80;;;0.80;;
16516;SDS011;8371;52.272;9.746;2022-08-19T14:24:33;0.60;;;0.60;;
16516;SDS011;8371;52.272;9.746;2022-08-19T14:26:59;0.70;;;0.70;;
16516;SDS011;8371;52.272;9.746;2022-08-19T14:29:25;0.73;;;0.73;;
16516;SDS011;8371;52.272;9.746;2022-08-19T14:31:52;0.90;;;0.90;;
16516;SDS011;8371;52.272;9.746;2022-08-19T14:34:18;0.70;;;0.70;;
16516;SDS011;8371;52.272;9.746;2022-08-19T14:36:43;0.83;;;0.83;;
16516;SDS011;8371;52.272;9.746;2022-08-19T14:39:10;0.60;;;0.60;;
16516;SDS011;8371;52.272;9.746;2022-08-19T14:41:39;0.70;;;0.70;;
16516;SDS011;8371;52.272;9.746;2022-08-19T14:44:05;0.90;;;0.90;;
16516;SDS011;8371;52.272;9.746;2022-08-19T14:46:31;0.60;;;0.60;;
16516;SDS011;8371;52.272;9.746;2022-08-19T14:48:57;0.77;;;0.77;;
16516;SDS011;8371;52.272;9.746;2022-08-19T14:51:24;0.50;;;0.50;;
16516;SDS011;8371;52.272;9.746;2022-08-19T14:53:52;0.87;;;0.87;;
16516;SDS011;8371;52.272;9.746;2022-08-19T14:56:19;0.77;;;0.77;;
16516;SDS011;8371;52.272;9.746;2022-08-19T14:58:47;0.67;;;0.67;;
16516;SDS011;8371;52.272;9.746;2022-08-19T15:01:16;0.67;;;0.67;;
16516;SDS011;8371;52.272;9.746;2022-08-19T15:03:42;0.80;;;0.80;;
16516;SDS011;8371;52.272;9.746;2022-08-19T15:06:08;0.85;;;0.85;;
16516;SDS011;8371;52.272;9.746;2022-08-19T15:08:35;0.80;;;0.80;;
16516;SDS011;8371;52.272;9.746;2022-08-19T15:11:07;0.73;;;0.73;;
16516;SDS011;8371;52.272;9.746;2022-08-19T15:13:35;0.63;;;0.63;;
16516;SDS011;8371;52.272;9.746;2022-08-19T15:16:02;0.83;;;0.83;;
16516;SDS011;8371;52.272;9.746;2022-08-19T15:18:27;0.60;;;0.60;;
16516;SDS011;8371;52.272;9.746;2022-08-19T15:20:53;0.63;;;0.63;;